createdAt,value
2019-05-30T00:02:15.704Z,93.50
2019-05-30T00:04:46.286Z,94.10
2019-05-30T00:07:17.321Z,94.60
2019-05-30T00:09:47.913Z,94.30
2019-05-30T00:12:18.613Z,94.20
2019-05-30T00:14:49.267Z,94.10
2019-05-30T00:17:20.025Z,93.90
2019-05-30T00:19:50.691Z,94.30
2019-05-30T00:22:21.347Z,94.40
2019-05-30T00:24:52.123Z,94.70
2019-05-30T00:27:22.800Z,94.80
2019-05-30T00:29:53.448Z,94.80
2019-05-30T00:32:24.311Z,95.60
2019-05-30T00:34:55.539Z,95.30
2019-05-30T00:37:26.358Z,95.50
2019-05-30T00:39:57.833Z,95.20
2019-05-30T00:42:28.640Z,95.50
2019-05-30T00:44:59.987Z,96.00
2019-05-30T00:47:30.827Z,95.90
2019-05-30T00:50:02.732Z,96.20
2019-05-30T00:52:33.612Z,96.60
2019-05-30T00:55:04.747Z,96.80
2019-05-30T00:57:35.558Z,97.40
2019-05-30T01:00:07.212Z,97.80
2019-05-30T01:02:37.987Z,98.00
2019-05-30T01:05:09.160Z,97.80
2019-05-30T01:07:39.914Z,98.10
2019-05-30T01:10:10.970Z,98.00
2019-05-30T01:12:41.708Z,97.80
2019-05-30T01:15:12.763Z,98.50
2019-05-30T01:17:43.450Z,98.70
2019-05-30T01:20:14.857Z,98.40
2019-05-30T01:22:45.608Z,98.20
2019-05-30T01:25:16.331Z,97.70
2019-05-30T01:27:47.056Z,97.60
2019-05-30T01:30:19.163Z,97.80
2019-05-30T01:32:50.259Z,97.80
2019-05-30T01:35:20.986Z,97.90
2019-05-30T01:37:51.722Z,98.00
2019-05-30T01:40:22.449Z,98.20
2019-05-30T01:42:53.276Z,98.20
2019-05-30T01:45:24.041Z,98.80
2019-05-30T01:47:54.789Z,98.90
2019-05-30T01:50:25.473Z,99.00
2019-05-30T01:52:56.151Z,98.70
2019-05-30T01:55:26.917Z,98.60
2019-05-30T01:57:58.695Z,98.70
2019-05-30T02:00:39.628Z,98.20
2019-05-30T02:03:10.390Z,98.30
2019-05-30T02:05:41.217Z,98.60
2019-05-30T02:08:11.947Z,98.20
2019-05-30T02:10:43.668Z,98.30
2019-05-30T02:13:14.404Z,98.20
2019-05-30T02:15:45.194Z,97.70
2019-05-30T02:18:15.933Z,97.40
2019-05-30T02:20:46.645Z,96.90
2019-05-30T02:23:17.361Z,96.80
2019-05-30T02:25:48.116Z,95.90
2019-05-30T02:28:18.814Z,96.20
2019-05-30T02:30:49.567Z,96.70
2019-05-30T02:33:20.248Z,96.90
2019-05-30T02:35:50.982Z,96.90
2019-05-30T02:38:21.719Z,96.40
2019-05-30T02:40:52.497Z,96.80
2019-05-30T02:43:23.192Z,97.00
2019-05-30T02:45:53.928Z,97.50
2019-05-30T02:48:24.714Z,97.10
2019-05-30T02:50:55.482Z,97.00
2019-05-30T02:53:26.221Z,97.10
2019-05-30T02:55:56.949Z,96.90
2019-05-30T02:58:27.672Z,97.40
2019-05-30T03:00:58.468Z,97.70
2019-05-30T03:03:29.115Z,97.50
2019-05-30T03:06:01.635Z,97.80
2019-05-30T03:08:32.256Z,97.20
2019-05-30T03:11:04.439Z,96.90
2019-05-30T03:13:35.607Z,96.80
2019-05-30T03:16:07.434Z,97.10
2019-05-30T03:18:38.704Z,96.70
2019-05-30T03:21:12.478Z,96.80
2019-05-30T03:23:41.807Z,97.00
2019-05-30T03:26:15.474Z,97.20
2019-05-30T03:28:44.892Z,97.60
2019-05-30T03:31:28.066Z,98.30
2019-05-30T03:33:50.106Z,98.10
2019-05-30T03:36:30.260Z,97.70
2019-05-30T03:38:53.099Z,97.30
2019-05-30T03:41:23.874Z,97.60
2019-05-30T03:43:54.610Z,97.40
2019-05-30T03:46:28.686Z,97.20
2019-05-30T03:49:04.310Z,96.60
2019-05-30T03:51:36.923Z,97.20
2019-05-30T03:54:09.847Z,97.40
2019-05-30T03:56:46.132Z,97.60
2019-05-30T03:59:27.716Z,97.00
2019-05-30T04:02:06.493Z,95.80
2019-05-30T04:04:42.084Z,95.80
2019-05-30T04:07:19.453Z,95.80
2019-05-30T04:09:52.928Z,94.80
2019-05-30T04:12:47.458Z,95.70
2019-05-30T04:15:31.463Z,95.00
2019-05-30T04:18:02.378Z,95.40
2019-05-30T04:20:33.092Z,94.90
2019-05-30T04:23:03.851Z,95.00
2019-05-30T04:25:34.565Z,94.20
2019-05-30T04:28:05.370Z,93.20
2019-05-30T04:30:36.576Z,92.20
2019-05-30T04:33:23.786Z,93.20
2019-05-30T04:35:39.640Z,90.80
2019-05-30T04:38:10.538Z,92.20
2019-05-30T04:40:41.278Z,90.50
2019-05-30T04:43:13.435Z,91.10
2019-05-30T04:45:44.432Z,90.40
2019-05-30T04:48:16.055Z,90.40
2019-05-30T04:50:46.965Z,90.50
2019-05-30T04:53:18.479Z,90.60
2019-05-30T04:55:49.404Z,89.40
2019-05-30T04:58:21.865Z,89.10
2019-05-30T05:00:52.547Z,89.80
2019-05-30T05:03:41.606Z,88.20
2019-05-30T05:05:55.642Z,88.70
2019-05-30T05:08:26.332Z,88.50
2019-05-30T05:10:57.051Z,89.60
2019-05-30T05:13:27.859Z,90.40
2019-05-30T05:15:58.595Z,89.20
2019-05-30T05:18:29.321Z,88.10
2019-05-30T05:21:00.098Z,89.20
2019-05-30T05:23:30.753Z,89.00
2019-05-30T05:26:01.712Z,90.60
2019-05-30T05:28:32.556Z,88.50
2019-05-30T05:31:03.303Z,87.90
2019-05-30T05:33:33.989Z,88.30
2019-05-30T05:36:04.696Z,88.00
2019-05-30T05:38:35.423Z,89.30
2019-05-30T05:41:06.199Z,88.90
2019-05-30T05:43:36.965Z,89.40
2019-05-30T05:46:08.042Z,88.60
2019-05-30T05:48:38.779Z,86.50
2019-05-30T05:51:09.551Z,87.40
2019-05-30T05:53:40.272Z,88.20
2019-05-30T05:56:11.023Z,86.20
2019-05-30T05:58:41.735Z,87.60
2019-05-30T06:01:12.801Z,87.40
2019-05-30T06:03:43.539Z,87.30
2019-05-30T06:06:14.273Z,87.00
2019-05-30T06:08:44.989Z,85.90
2019-05-30T06:11:16.537Z,85.20
2019-05-30T06:13:47.485Z,86.00
2019-05-30T06:16:18.180Z,85.80
2019-05-30T06:18:48.838Z,84.00
2019-05-30T06:21:19.632Z,80.50
2019-05-30T06:23:50.329Z,81.10
2019-05-30T06:26:22.491Z,79.10
2019-05-30T06:28:53.346Z,79.70
2019-05-30T06:31:24.457Z,79.70
2019-05-30T06:33:55.157Z,79.40
2019-05-30T06:36:27.200Z,79.60
2019-05-30T06:38:58.050Z,79.80
2019-05-30T06:41:29.791Z,80.50
2019-05-30T06:44:00.542Z,76.10
2019-05-30T06:46:31.358Z,78.30
2019-05-30T06:49:02.205Z,81.30
2019-05-30T06:51:32.901Z,80.00
2019-05-30T06:54:03.657Z,81.00
2019-05-30T06:56:34.374Z,81.30
2019-05-30T06:59:05.292Z,81.00
2019-05-30T07:01:36.087Z,79.20
2019-05-30T07:04:07.199Z,73.20
2019-05-30T07:06:38.378Z,74.40
2019-05-30T07:09:09.806Z,76.60
2019-05-30T07:11:40.552Z,73.90
2019-05-30T07:14:11.280Z,74.90
2019-05-30T07:16:41.969Z,76.00
2019-05-30T07:19:12.743Z,75.00
2019-05-30T07:21:43.469Z,74.80
2019-05-30T07:24:14.266Z,73.10
2019-05-30T07:26:44.941Z,74.90
2019-05-30T07:29:15.658Z,77.50
2019-05-30T07:31:46.399Z,75.40
2019-05-30T07:34:17.146Z,78.40
2019-05-30T07:36:47.867Z,79.70
2019-05-30T07:39:18.594Z,78.70
2019-05-30T07:42:05.174Z,79.70
2019-05-30T07:44:21.696Z,78.60
2019-05-30T07:46:52.383Z,75.50
2019-05-30T07:49:23.111Z,76.80
2019-05-30T07:51:53.865Z,78.20
2019-05-30T07:54:24.602Z,77.10
2019-05-30T07:56:55.319Z,73.90
2019-05-30T07:59:26.425Z,71.20
2019-05-30T08:01:57.268Z,73.30
2019-05-30T08:04:27.969Z,72.00
2019-05-30T08:06:58.710Z,72.70
2019-05-30T08:09:30.607Z,70.20
2019-05-30T08:12:01.527Z,69.40
2019-05-30T08:14:33.277Z,69.90
2019-05-30T08:17:04.080Z,69.30
2019-05-30T08:19:35.908Z,67.40
2019-05-30T08:22:06.805Z,70.00
2019-05-30T08:24:38.843Z,67.10
2019-05-30T08:27:09.746Z,66.70
2019-05-30T08:29:40.521Z,67.60
2019-05-30T08:32:11.300Z,67.10
2019-05-30T08:34:42.043Z,65.20
2019-05-30T08:37:12.734Z,66.40
2019-05-30T08:39:43.478Z,66.40
2019-05-30T08:42:15.677Z,67.30
2019-05-30T08:44:46.435Z,65.50
2019-05-30T08:47:17.099Z,65.40
2019-05-30T08:49:47.864Z,66.00
2019-05-30T08:52:18.630Z,66.20
2019-05-30T08:54:49.360Z,65.50
2019-05-30T08:57:20.055Z,65.90
2019-05-30T08:59:50.772Z,63.20
2019-05-30T09:02:21.518Z,65.40
2019-05-30T09:04:52.253Z,63.60
2019-05-30T09:07:22.879Z,64.00
2019-05-30T09:09:53.607Z,64.30
2019-05-30T09:12:24.363Z,61.70
2019-05-30T09:14:55.057Z,63.20
2019-05-30T09:17:25.779Z,62.10
2019-05-30T09:19:56.522Z,61.10
2019-05-30T09:22:27.247Z,62.70
2019-05-30T09:24:58.034Z,61.50
2019-05-30T09:27:28.693Z,60.00
2019-05-30T09:29:59.437Z,63.90
2019-05-30T09:32:30.154Z,60.60
2019-05-30T09:35:00.896Z,61.40
2019-05-30T09:37:31.586Z,61.90
2019-05-30T09:40:02.323Z,58.70
2019-05-30T09:42:33.108Z,63.20
2019-05-30T09:45:04.109Z,62.70
2019-05-30T09:47:34.822Z,61.20
2019-05-30T09:50:06.575Z,59.40
2019-05-30T09:52:37.275Z,62.20
2019-05-30T09:55:08.612Z,59.00
2019-05-30T09:57:39.328Z,57.20
2019-05-30T10:00:11.095Z,57.40
2019-05-30T10:02:43.006Z,59.60
2019-05-30T10:05:15.919Z,56.60
2019-05-30T10:07:47.535Z,60.30
2019-05-30T10:10:18.962Z,61.00
2019-05-30T10:12:50.355Z,59.30
2019-05-30T10:15:21.797Z,56.60
2019-05-30T10:17:54.406Z,59.80
2019-05-30T10:20:25.087Z,60.40
2019-05-30T10:22:57.113Z,58.30
2019-05-30T10:25:28.141Z,59.70
2019-05-30T10:27:58.837Z,58.70
2019-05-30T10:30:29.696Z,59.40
2019-05-30T10:33:00.520Z,59.30
2019-05-30T10:35:31.195Z,59.10
2019-05-30T10:38:01.982Z,55.30
2019-05-30T10:40:32.729Z,57.70
2019-05-30T10:43:03.465Z,56.40
2019-05-30T10:45:34.304Z,57.90
2019-05-30T10:48:05.159Z,57.10
2019-05-30T10:50:35.936Z,56.80
2019-05-30T10:53:06.650Z,56.10
2019-05-30T10:55:37.397Z,57.40
2019-05-30T10:58:08.116Z,58.10
2019-05-30T11:00:53.334Z,55.70
2019-05-30T11:03:26.140Z,57.50
2019-05-30T11:06:03.503Z,59.10
2019-05-30T11:08:37.428Z,56.40
2019-05-30T11:11:08.215Z,56.10
2019-05-30T11:13:38.948Z,56.70
2019-05-30T11:16:09.654Z,55.00
2019-05-30T11:18:40.391Z,53.60
2019-05-30T11:21:11.139Z,54.00
2019-05-30T11:23:41.854Z,54.70
2019-05-30T11:26:12.681Z,55.30
2019-05-30T11:28:43.496Z,55.40
2019-05-30T11:31:14.342Z,56.50
2019-05-30T11:33:45.242Z,58.10
2019-05-30T11:36:15.936Z,59.10
2019-05-30T11:38:46.653Z,58.80
2019-05-30T11:41:17.356Z,59.60
2019-05-30T11:43:49.332Z,60.50
2019-05-30T11:46:20.154Z,61.40
2019-05-30T11:48:51.624Z,59.30
2019-05-30T11:51:22.509Z,60.50
2019-05-30T11:53:53.815Z,60.20
2019-05-30T11:56:24.588Z,59.50
2019-05-30T11:58:55.985Z,61.70
2019-05-30T12:01:26.877Z,62.10
2019-05-30T12:03:58.767Z,61.40
2019-05-30T12:06:29.514Z,62.30
2019-05-30T12:09:01.117Z,62.30
2019-05-30T12:11:32.507Z,63.80
2019-05-30T12:14:03.276Z,63.30
2019-05-30T12:16:34.043Z,62.30
2019-05-30T12:19:04.730Z,63.10
2019-05-30T12:21:35.473Z,64.20
2019-05-30T12:24:06.209Z,63.40
2019-05-30T12:26:37.546Z,61.80
2019-05-30T12:29:08.283Z,61.80
2019-05-30T12:31:39.000Z,62.20
2019-05-30T12:34:09.764Z,61.60
2019-05-30T12:36:40.491Z,57.50
2019-05-30T12:39:11.817Z,61.10
2019-05-30T12:41:42.536Z,60.10
2019-05-30T12:44:13.280Z,60.80
2019-05-30T12:46:43.997Z,60.80
2019-05-30T12:49:14.722Z,60.10
2019-05-30T12:51:45.450Z,61.30
2019-05-30T12:54:16.168Z,58.50
2019-05-30T12:56:46.863Z,59.00
2019-05-30T12:59:17.652Z,56.20
2019-05-30T13:01:48.315Z,58.50
2019-05-30T13:04:19.042Z,56.20
2019-05-30T13:06:49.718Z,56.60
2019-05-30T13:09:22.174Z,60.10
2019-05-30T13:11:54.198Z,55.90
2019-05-30T13:14:26.178Z,56.00
2019-05-30T13:16:57.712Z,54.50
2019-05-30T13:19:28.521Z,55.60
2019-05-30T13:21:59.295Z,55.00
2019-05-30T13:24:29.983Z,56.50
2019-05-30T13:27:01.818Z,55.70
2019-05-30T13:29:32.608Z,54.80
2019-05-30T13:32:04.516Z,56.40
2019-05-30T13:34:35.449Z,57.30
2019-05-30T13:37:07.163Z,54.00
2019-05-30T13:39:37.904Z,52.80
2019-05-30T13:42:08.639Z,52.80
2019-05-30T13:44:39.386Z,54.30
2019-05-30T13:47:10.961Z,53.40
2019-05-30T13:49:42.139Z,53.20
2019-05-30T13:52:13.118Z,53.30
2019-05-30T13:54:43.814Z,52.50
2019-05-30T13:57:14.609Z,55.90
2019-05-30T13:59:45.345Z,54.50
2019-05-30T14:02:16.063Z,54.90
2019-05-30T14:04:46.797Z,54.70
2019-05-30T14:07:17.574Z,54.90
2019-05-30T14:09:48.342Z,57.60
2019-05-30T14:12:19.186Z,57.80
2019-05-30T14:14:49.874Z,59.30
2019-05-30T14:17:20.540Z,59.50
2019-05-30T14:19:51.257Z,58.60
2019-05-30T14:22:22.032Z,56.90
2019-05-30T14:24:52.737Z,54.80
2019-05-30T14:27:23.585Z,52.80
2019-05-30T14:29:54.303Z,52.50
2019-05-30T14:32:25.028Z,52.50
2019-05-30T14:34:55.833Z,52.40
2019-05-30T14:37:26.931Z,49.50
2019-05-30T14:39:57.548Z,52.40
2019-05-30T14:42:28.313Z,53.00
2019-05-30T14:44:59.091Z,54.20
2019-05-30T14:47:29.827Z,51.20
2019-05-30T14:50:00.564Z,53.50
2019-05-30T14:52:31.331Z,55.00
2019-05-30T14:55:02.057Z,56.60
2019-05-30T14:57:32.795Z,54.80
2019-05-30T15:00:03.489Z,54.30
2019-05-30T15:02:34.275Z,55.50
2019-05-30T15:05:05.394Z,57.00
2019-05-30T15:07:36.267Z,58.40
2019-05-30T15:10:08.707Z,59.30
2019-05-30T15:12:39.628Z,59.60
2019-05-30T15:15:14.224Z,59.70
2019-05-30T15:17:43.118Z,61.30
2019-05-30T15:20:14.431Z,61.50
2019-05-30T15:22:45.227Z,61.50
2019-05-30T15:25:18.118Z,61.40
2019-05-30T15:27:49.042Z,61.50
2019-05-30T15:30:19.858Z,62.20
2019-05-30T15:32:50.623Z,61.40
2019-05-30T15:35:21.321Z,62.80
2019-05-30T15:37:52.117Z,62.50
2019-05-30T15:40:23.133Z,62.70
2019-05-30T15:42:53.872Z,61.10
2019-05-30T15:45:24.727Z,61.20
2019-05-30T15:47:55.475Z,61.40
2019-05-30T15:50:26.299Z,62.20
2019-05-30T15:52:56.986Z,62.50
2019-05-30T15:55:27.776Z,63.10
2019-05-30T15:57:58.467Z,61.60
2019-05-30T16:00:29.367Z,61.20
2019-05-30T16:03:00.211Z,61.30
2019-05-30T16:05:30.962Z,60.90
2019-05-30T16:08:01.800Z,60.40
2019-05-30T16:10:32.681Z,59.40
2019-05-30T16:13:03.516Z,61.50
2019-05-30T16:15:34.262Z,63.30
2019-05-30T16:18:05.020Z,63.40
2019-05-30T16:20:35.775Z,63.90
2019-05-30T16:23:06.444Z,63.90
2019-05-30T16:25:37.369Z,64.00
2019-05-30T16:28:08.135Z,63.80
2019-05-30T16:30:38.871Z,64.80
2019-05-30T16:33:09.617Z,64.50
2019-05-30T16:35:40.424Z,64.60
2019-05-30T16:38:11.203Z,63.90
2019-05-30T16:40:41.982Z,64.00
2019-05-30T16:43:14.103Z,63.40
2019-05-30T16:45:44.893Z,64.80
2019-05-30T16:48:16.308Z,67.10
2019-05-30T16:50:47.124Z,66.40
2019-05-30T16:53:19.011Z,66.50
2019-05-30T16:55:50.246Z,67.60
2019-05-30T16:58:21.984Z,68.10
2019-05-30T17:00:52.851Z,68.20
2019-05-30T17:03:24.098Z,69.00
2019-05-30T17:05:55.492Z,68.70
2019-05-30T17:08:26.404Z,69.80
2019-05-30T17:10:57.069Z,68.80
2019-05-30T17:13:31.105Z,69.20
2019-05-30T17:16:00.280Z,69.40
2019-05-30T17:18:31.082Z,69.70
2019-05-30T17:21:01.772Z,69.50
2019-05-30T17:23:32.500Z,69.10
2019-05-30T17:26:03.276Z,68.80
2019-05-30T17:28:33.981Z,68.30
2019-05-30T17:31:04.697Z,68.00
2019-05-30T17:33:35.405Z,68.60
2019-05-30T17:36:06.354Z,69.20
2019-05-30T17:38:37.077Z,69.00
2019-05-30T17:41:07.863Z,69.30
2019-05-30T17:43:38.600Z,70.10
2019-05-30T17:46:09.252Z,70.30
2019-05-30T17:48:40.073Z,70.90
2019-05-30T17:51:10.830Z,70.50
2019-05-30T17:53:41.567Z,70.60
2019-05-30T17:56:12.605Z,69.60
2019-05-30T17:58:43.278Z,68.50
2019-05-30T18:01:14.027Z,69.20
2019-05-30T18:03:44.772Z,70.10
2019-05-30T18:06:15.488Z,70.60
2019-05-30T18:08:46.286Z,70.80
2019-05-30T18:11:17.061Z,70.90
2019-05-30T18:13:47.748Z,71.10
2019-05-30T18:16:18.436Z,72.20
2019-05-30T18:18:49.244Z,72.60
2019-05-30T18:21:21.150Z,72.90
2019-05-30T18:23:52.104Z,74.10
2019-05-30T18:26:23.504Z,74.10
2019-05-30T18:28:54.310Z,75.00
2019-05-30T18:31:25.886Z,75.70
2019-05-30T18:33:56.732Z,76.50
2019-05-30T18:36:28.441Z,76.90
2019-05-30T18:38:59.319Z,78.20
2019-05-30T18:41:30.897Z,79.70
2019-05-30T18:44:01.855Z,80.00
2019-05-30T18:46:33.354Z,81.10
2019-05-30T18:49:04.178Z,82.60
2019-05-30T18:51:34.865Z,82.60
2019-05-30T18:54:05.711Z,82.70
2019-05-30T18:56:36.988Z,82.70
2019-05-30T18:59:07.846Z,82.50
2019-05-30T19:01:38.584Z,83.00
2019-05-30T19:04:09.418Z,83.90
2019-05-30T19:06:40.131Z,84.90
2019-05-30T19:09:10.911Z,85.50
2019-05-30T19:11:41.620Z,86.50
2019-05-30T19:14:12.452Z,87.80
2019-05-30T19:16:43.168Z,87.80
2019-05-30T19:19:13.966Z,88.30
2019-05-30T19:21:44.728Z,89.20
2019-05-30T19:24:15.458Z,89.40
2019-05-30T19:26:46.194Z,90.00
2019-05-30T19:29:16.943Z,90.40
2019-05-30T19:31:47.677Z,91.00
2019-05-30T19:34:18.444Z,91.40
2019-05-30T19:36:49.161Z,92.10
2019-05-30T19:39:19.959Z,92.20
2019-05-30T19:41:57.066Z,92.50
2019-05-30T19:44:23.111Z,93.00
2019-05-30T19:46:53.894Z,93.40
2019-05-30T19:49:24.676Z,93.40
2019-05-30T19:51:55.380Z,93.80
2019-05-30T19:54:26.192Z,93.80
2019-05-30T19:56:56.996Z,93.90
2019-05-30T19:59:27.802Z,94.60
2019-05-30T20:01:58.529Z,94.50
2019-05-30T20:04:30.189Z,95.20
2019-05-30T20:07:00.991Z,95.10
2019-05-30T20:09:32.499Z,95.30
2019-05-30T20:12:08.408Z,96.00
2019-05-30T20:14:35.727Z,96.20
2019-05-30T20:17:06.574Z,96.20
2019-05-30T20:19:37.770Z,97.00
2019-05-30T20:22:08.697Z,96.90
2019-05-30T20:24:40.517Z,97.20
2019-05-30T20:27:11.370Z,97.80
2019-05-30T20:29:46.002Z,98.20
2019-05-30T20:32:14.575Z,98.60
2019-05-30T20:34:45.293Z,98.30
2019-05-30T20:37:15.986Z,97.90
2019-05-30T20:39:47.246Z,98.20
2019-05-30T20:42:19.440Z,98.90
2019-05-30T20:44:50.686Z,98.40
2019-05-30T20:47:21.423Z,98.30
2019-05-30T20:49:52.179Z,98.50
2019-05-30T20:52:22.905Z,99.00
2019-05-30T20:54:53.692Z,99.20
2019-05-30T20:57:24.438Z,99.10
2019-05-30T20:59:55.245Z,99.20
2019-05-30T21:02:29.190Z,99.30
2019-05-30T21:04:58.370Z,99.60
2019-05-30T21:07:29.668Z,99.50
2019-05-30T21:10:01.258Z,99.70
2019-05-30T21:12:37.857Z,99.80
2019-05-30T21:15:06.414Z,99.60
2019-05-30T21:17:37.792Z,99.90
2019-05-30T21:20:11.517Z,99.60
2019-05-30T21:22:42.208Z,99.90
2019-05-30T21:25:13.061Z,99.90
2019-05-30T21:27:45.096Z,99.90
2019-05-30T21:30:17.475Z,99.90
2019-05-30T21:32:48.686Z,99.90
2019-05-30T21:35:19.646Z,99.90
2019-05-30T21:37:50.507Z,99.90
2019-05-30T21:40:21.111Z,99.90
2019-05-30T21:43:05.214Z,99.90
2019-05-30T21:45:24.205Z,99.90
2019-05-30T21:47:54.981Z,99.90
2019-05-30T21:50:25.699Z,99.90
2019-05-30T21:52:56.444Z,99.90
2019-05-30T21:55:27.114Z,99.90
2019-05-30T21:57:57.866Z,99.90
2019-05-30T22:01:09.736Z,99.90
2019-05-30T22:03:40.857Z,99.90
2019-05-30T22:06:11.612Z,99.90
2019-05-30T22:08:43.032Z,99.90
2019-05-30T22:11:13.949Z,99.90
2019-05-30T22:13:45.481Z,99.90
2019-05-30T22:16:16.232Z,99.90
2019-05-30T22:18:48.062Z,99.90
2019-05-30T22:21:18.788Z,99.90
2019-05-30T22:23:50.314Z,99.90
2019-05-30T22:26:21.129Z,99.90
2019-05-30T22:28:52.685Z,99.90
2019-05-30T22:31:23.532Z,99.90
2019-05-30T22:33:54.248Z,99.90
2019-05-30T22:36:24.995Z,99.90
2019-05-30T22:38:55.841Z,99.90
2019-05-30T22:41:26.618Z,99.90
2019-05-30T22:43:57.495Z,99.90
2019-05-30T22:46:28.261Z,99.90
2019-05-30T22:48:58.998Z,99.90
2019-05-30T22:51:29.617Z,99.90
2019-05-30T22:54:00.322Z,99.90
2019-05-30T22:56:30.957Z,99.90
2019-05-30T22:59:01.604Z,99.90
2019-05-30T23:01:32.354Z,99.90
2019-05-30T23:04:03.117Z,99.90
2019-05-30T23:06:33.823Z,99.90
2019-05-30T23:09:06.190Z,99.90
2019-05-30T23:11:36.968Z,99.90
2019-05-30T23:14:07.814Z,99.90
2019-05-30T23:16:38.540Z,99.90
2019-05-30T23:19:09.396Z,99.90
2019-05-30T23:21:40.098Z,99.90
2019-05-30T23:24:10.916Z,99.90
2019-05-30T23:26:41.688Z,99.90
2019-05-30T23:29:12.446Z,99.90
2019-05-30T23:31:43.080Z,99.90
2019-05-30T23:34:13.838Z,99.90
2019-05-30T23:36:44.593Z,99.90
2019-05-30T23:39:15.299Z,99.90
2019-05-30T23:41:46.067Z,99.90
2019-05-30T23:44:16.731Z,99.90
2019-05-30T23:46:47.578Z,99.90
2019-05-30T23:49:18.294Z,99.90
2019-05-30T23:51:49.919Z,99.90
2019-05-30T23:54:20.738Z,99.90
2019-05-30T23:56:52.352Z,99.90
2019-05-30T23:59:23.161Z,99.90
